createdAt,value
2022-09-03T00:00:09.453Z,100866.00
2022-09-03T00:02:39.503Z,100871.00
2022-09-03T00:05:29.428Z,100866.00
2022-09-03T00:08:19.053Z,100863.00
2022-09-03T00:10:53.511Z,100870.00
2022-09-03T00:13:29.600Z,100855.00
2022-09-03T00:15:59.970Z,100861.00
2022-09-03T00:18:35.454Z,100852.00
2022-09-03T00:21:09.496Z,100860.00
2022-09-03T00:23:41.370Z,100859.00
2022-09-03T00:26:25.924Z,100850.00
2022-09-03T00:29:31.727Z,100855.00
2022-09-03T00:32:07.834Z,100853.00
2022-09-03T00:34:41.577Z,100844.00
2022-09-03T00:37:12.410Z,100851.00
2022-09-03T00:39:43.248Z,100858.00
2022-09-03T00:42:49.117Z,100859.00
2022-09-03T00:45:25.473Z,100853.00
2022-09-03T00:48:17.767Z,100859.00
2022-09-03T00:51:14.558Z,100859.00
2022-09-03T00:53:51.533Z,100857.00
2022-09-03T00:56:55.826Z,100860.00
2022-09-03T00:59:51.905Z,100865.00
2022-09-03T01:02:50.702Z,100862.00
2022-09-03T01:05:49.726Z,100869.00
2022-09-03T01:08:49.212Z,100864.00
2022-09-03T01:11:49.309Z,100853.00
2022-09-03T01:15:12.407Z,100863.00
2022-09-03T01:18:05.537Z,100862.00
2022-09-03T01:21:22.790Z,100863.00
2022-09-03T01:24:38.993Z,100863.00
2022-09-03T01:27:59.471Z,100868.00
2022-09-03T01:30:27.256Z,100862.00
2022-09-03T01:32:57.348Z,100858.00
2022-09-03T01:35:44.304Z,100856.00
2022-09-03T01:38:53.287Z,100861.00
2022-09-03T01:42:14.296Z,100854.00
2022-09-03T01:45:51.608Z,100861.00
2022-09-03T01:48:31.243Z,100859.00
2022-09-03T01:51:32.487Z,100861.00
2022-09-03T01:54:35.806Z,100860.00
2022-09-03T01:57:35.560Z,100865.00
2022-09-03T02:00:20.700Z,100869.00
2022-09-03T02:02:52.939Z,100865.00
2022-09-03T02:05:30.170Z,100863.00
2022-09-03T02:08:07.727Z,100873.00
2022-09-03T02:10:42.293Z,100862.00
2022-09-03T02:13:20.551Z,100852.00
2022-09-03T02:15:52.396Z,100852.00
2022-09-03T02:18:49.151Z,100858.00
2022-09-03T02:21:20.716Z,100859.00
2022-09-03T02:23:49.605Z,100856.00
2022-09-03T02:26:23.127Z,100850.00
2022-09-03T02:28:53.505Z,100851.00
2022-09-03T02:31:21.494Z,100853.00
2022-09-03T02:33:51.308Z,100849.00
2022-09-03T02:36:27.609Z,100855.00
2022-09-03T02:38:55.313Z,100859.00
2022-09-03T02:41:22.921Z,100862.00
2022-09-03T02:44:26.053Z,100854.00
2022-09-03T02:47:07.012Z,100850.00
2022-09-03T02:49:34.785Z,100838.00
2022-09-03T02:52:11.973Z,100848.00
2022-09-03T02:54:40.238Z,100853.00
2022-09-03T02:57:11.136Z,100838.00
2022-09-03T02:59:39.962Z,100828.00
2022-09-03T03:02:07.531Z,100834.00
2022-09-03T03:04:35.057Z,100850.00
2022-09-03T03:07:02.203Z,100836.00
2022-09-03T03:09:29.381Z,100843.00
2022-09-03T03:11:56.625Z,100847.00
2022-09-03T03:14:24.252Z,100843.00
2022-09-03T03:16:52.193Z,100833.00
2022-09-03T03:19:19.581Z,100834.00
2022-09-03T03:21:46.897Z,100845.00
2022-09-03T03:24:14.201Z,100837.00
2022-09-03T03:26:41.757Z,100833.00
2022-09-03T03:29:14.168Z,100844.00
2022-09-03T03:31:41.453Z,100833.00
2022-09-03T03:34:08.571Z,100826.00
2022-09-03T03:36:36.642Z,100830.00
2022-09-03T03:39:04.514Z,100832.00
2022-09-03T03:41:36.776Z,100844.00
2022-09-03T03:44:07.875Z,100830.00
2022-09-03T03:46:41.540Z,100835.00
2022-09-03T03:49:10.482Z,100833.00
2022-09-03T03:51:38.900Z,100832.00
2022-09-03T03:54:06.876Z,100827.00
2022-09-03T03:56:35.004Z,100828.00
2022-09-03T03:59:02.442Z,100827.00
2022-09-03T04:01:30.372Z,100825.00
2022-09-03T04:04:00.312Z,100816.00
2022-09-03T04:06:28.021Z,100818.00
2022-09-03T04:08:55.350Z,100821.00
2022-09-03T04:11:24.368Z,100827.00
2022-09-03T04:13:53.119Z,100812.00
2022-09-03T04:16:23.925Z,100825.00
2022-09-03T04:18:52.608Z,100822.00
2022-09-03T04:21:29.353Z,100822.00
2022-09-03T04:23:58.603Z,100825.00
2022-09-03T04:26:31.914Z,100819.00
2022-09-03T04:29:02.576Z,100820.00
2022-09-03T04:31:30.629Z,100815.00
2022-09-03T04:33:59.287Z,100817.00
2022-09-03T04:36:30.017Z,100826.00
2022-09-03T04:39:01.924Z,100822.00
2022-09-03T04:41:31.668Z,100808.00
2022-09-03T04:44:00.244Z,100821.00
2022-09-03T04:46:34.173Z,100822.00
2022-09-03T04:49:02.153Z,100821.00
2022-09-03T04:51:31.850Z,100822.00
2022-09-03T04:54:03.199Z,100811.00
2022-09-03T04:56:40.523Z,100814.00
2022-09-03T04:59:11.897Z,100814.00
2022-09-03T05:01:40.718Z,100815.00
2022-09-03T05:04:08.801Z,100818.00
2022-09-03T05:06:37.794Z,100824.00
2022-09-03T05:09:06.067Z,100822.00
2022-09-03T05:11:33.491Z,100816.00
2022-09-03T05:14:01.298Z,100811.00
2022-09-03T05:16:31.244Z,100805.00
2022-09-03T05:19:01.489Z,100814.00
2022-09-03T05:21:30.219Z,100814.00
2022-09-03T05:23:59.755Z,100806.00
2022-09-03T05:26:30.852Z,100821.00
2022-09-03T05:29:02.190Z,100829.00
2022-09-03T05:31:32.169Z,100822.00
2022-09-03T05:34:03.279Z,100824.00
2022-09-03T05:36:35.762Z,100829.00
2022-09-03T05:39:04.306Z,100831.00
2022-09-03T05:41:33.457Z,100823.00
2022-09-03T05:44:00.588Z,100831.00
2022-09-03T05:46:33.911Z,100828.00
2022-09-03T05:49:04.076Z,100826.00
2022-09-03T05:51:32.657Z,100821.00
2022-09-03T05:54:00.627Z,100824.00
2022-09-03T05:56:30.735Z,100821.00
2022-09-03T05:59:02.217Z,100822.00
2022-09-03T06:01:36.628Z,100820.00
2022-09-03T06:04:15.184Z,100827.00
2022-09-03T06:06:46.280Z,100823.00
2022-09-03T06:09:19.214Z,100817.00
2022-09-03T06:11:49.327Z,100804.00
2022-09-03T06:14:18.290Z,100822.00
2022-09-03T06:16:53.248Z,100827.00
2022-09-03T06:19:20.974Z,100822.00
2022-09-03T06:21:48.548Z,100822.00
2022-09-03T06:24:26.247Z,100819.00
2022-09-03T06:26:59.496Z,100831.00
2022-09-03T06:29:28.647Z,100823.00
2022-09-03T06:31:56.894Z,100812.00
2022-09-03T06:34:27.352Z,100812.00
2022-09-03T06:36:54.870Z,100827.00
2022-09-03T06:39:22.446Z,100820.00
2022-09-03T06:41:51.948Z,100824.00
2022-09-03T06:44:19.279Z,100832.00
2022-09-03T06:46:47.550Z,100824.00
2022-09-03T06:49:15.096Z,100820.00
2022-09-03T06:51:45.015Z,100830.00
2022-09-03T06:54:13.328Z,100824.00
2022-09-03T06:56:42.032Z,100816.00
2022-09-03T06:59:16.095Z,100823.00
2022-09-03T07:01:46.504Z,100830.00
2022-09-03T07:04:20.166Z,100814.00
2022-09-03T07:06:48.303Z,100828.00
2022-09-03T07:09:18.486Z,100834.00
2022-09-03T07:11:49.525Z,100824.00
2022-09-03T07:14:20.369Z,100826.00
2022-09-03T07:16:49.987Z,100821.00
2022-09-03T07:19:20.680Z,100834.00
2022-09-03T07:21:50.587Z,100827.00
2022-09-03T07:24:22.239Z,100832.00
2022-09-03T07:26:49.944Z,100833.00
2022-09-03T07:29:20.940Z,100830.00
2022-09-03T07:31:53.446Z,100821.00
2022-09-03T07:34:25.495Z,100819.00
2022-09-03T07:36:57.976Z,100820.00
2022-09-03T07:39:25.749Z,100816.00
2022-09-03T07:41:53.098Z,100819.00
2022-09-03T07:44:20.662Z,100818.00
2022-09-03T07:46:50.205Z,100816.00
2022-09-03T07:49:17.555Z,100816.00
2022-09-03T07:51:46.692Z,100823.00
2022-09-03T07:54:14.056Z,100815.00
2022-09-03T07:56:41.396Z,100812.00
2022-09-03T07:59:09.351Z,100803.00
2022-09-03T08:01:39.192Z,100808.00
2022-09-03T08:04:10.079Z,100820.00
2022-09-03T08:06:38.683Z,100817.00
2022-09-03T08:09:11.512Z,100823.00
2022-09-03T08:11:43.457Z,100819.00
2022-09-03T08:14:14.290Z,100816.00
2022-09-03T08:16:46.036Z,100818.00
2022-09-03T08:19:14.940Z,100827.00
2022-09-03T08:21:42.564Z,100827.00
2022-09-03T08:24:12.335Z,100831.00
2022-09-03T08:26:46.272Z,100834.00
2022-09-03T08:29:18.299Z,100834.00
2022-09-03T08:31:45.886Z,100846.00
2022-09-03T08:34:14.884Z,100843.00
2022-09-03T08:36:42.613Z,100837.00
2022-09-03T08:39:11.866Z,100831.00
2022-09-03T08:42:21.778Z,100846.00
2022-09-03T08:44:57.102Z,100823.00
2022-09-03T08:47:39.598Z,100830.00
2022-09-03T08:50:45.635Z,100832.00
2022-09-03T08:53:55.505Z,100845.00
2022-09-03T08:56:29.490Z,100838.00
2022-09-03T08:58:57.193Z,100837.00
2022-09-03T09:02:01.433Z,100833.00
2022-09-03T09:04:38.046Z,100829.00
2022-09-03T09:07:33.267Z,100838.00
2022-09-03T09:10:17.595Z,100830.00
2022-09-03T09:13:27.593Z,100823.00
2022-09-03T09:16:37.551Z,100827.00
2022-09-03T09:19:32.221Z,100833.00
2022-09-03T09:22:15.174Z,100830.00
2022-09-03T09:24:49.724Z,100823.00
2022-09-03T09:27:17.988Z,100829.00
2022-09-03T09:29:50.962Z,100826.00
2022-09-03T09:32:21.726Z,100827.00
2022-09-03T09:34:52.259Z,100829.00
2022-09-03T09:37:20.949Z,100826.00
2022-09-03T09:39:58.788Z,100823.00
2022-09-03T09:42:27.453Z,100817.00
2022-09-03T09:44:54.630Z,100811.00
2022-09-03T09:47:32.693Z,100822.00
2022-09-03T09:50:02.825Z,100821.00
2022-09-03T09:52:31.842Z,100818.00
2022-09-03T09:55:18.526Z,100828.00
2022-09-03T09:57:46.653Z,100831.00
2022-09-03T10:00:18.142Z,100833.00
2022-09-03T10:02:57.318Z,100833.00
2022-09-03T10:05:28.271Z,100832.00
2022-09-03T10:08:19.074Z,100824.00
2022-09-03T10:10:50.804Z,100827.00
2022-09-03T10:13:43.264Z,100820.00
2022-09-03T10:16:30.208Z,100816.00
2022-09-03T10:19:12.638Z,100817.00
2022-09-03T10:22:18.246Z,100811.00
2022-09-03T10:25:02.800Z,100814.00
2022-09-03T10:27:32.101Z,100807.00
2022-09-03T10:30:00.912Z,100807.00
2022-09-03T10:32:38.947Z,100808.00
2022-09-03T10:35:19.520Z,100812.00
2022-09-03T10:38:38.185Z,100808.00
2022-09-03T10:41:11.074Z,100813.00
2022-09-03T10:44:26.097Z,100811.00
2022-09-03T10:47:49.753Z,100818.00
2022-09-03T10:50:29.130Z,100808.00
2022-09-03T10:53:22.295Z,100813.00
2022-09-03T10:56:17.486Z,100804.00
2022-09-03T10:59:20.945Z,100807.00
2022-09-03T11:02:41.445Z,100807.00
2022-09-03T11:05:24.201Z,100803.00
2022-09-03T11:08:22.249Z,100806.00
2022-09-03T11:10:58.231Z,100802.00
2022-09-03T11:14:03.914Z,100804.00
2022-09-03T11:16:50.370Z,100797.00
2022-09-03T11:19:48.464Z,100794.00
2022-09-03T11:22:20.753Z,100792.00
2022-09-03T11:25:00.082Z,100803.00
2022-09-03T11:27:47.966Z,100799.00
2022-09-03T11:30:26.422Z,100799.00
2022-09-03T11:33:00.782Z,100798.00
2022-09-03T11:35:57.515Z,100800.00
2022-09-03T11:38:31.175Z,100798.00
2022-09-03T11:41:27.163Z,100788.00
2022-09-03T11:43:55.347Z,100780.00
2022-09-03T11:46:22.555Z,100784.00
2022-09-03T11:48:56.065Z,100784.00
2022-09-03T11:51:37.920Z,100777.00
2022-09-03T11:54:06.419Z,100777.00
2022-09-03T11:56:35.915Z,100768.00
2022-09-03T11:59:15.198Z,100774.00
2022-09-03T12:02:24.881Z,100779.00
2022-09-03T12:05:39.019Z,100767.00
2022-09-03T12:08:39.767Z,100771.00
2022-09-03T12:11:56.942Z,100767.00
2022-09-03T12:15:11.274Z,100777.00
2022-09-03T12:18:20.315Z,100776.00
2022-09-03T12:21:09.844Z,100779.00
2022-09-03T12:23:58.180Z,100783.00
2022-09-03T12:26:27.697Z,100777.00
2022-09-03T12:29:01.029Z,100773.00
2022-09-03T12:31:45.218Z,100776.00
2022-09-03T12:34:16.778Z,100775.00
2022-09-03T12:36:51.660Z,100777.00
2022-09-03T12:42:27.985Z,100764.00
2022-09-03T12:44:55.384Z,100765.00
2022-09-03T12:47:35.525Z,100772.00
2022-09-03T12:50:12.468Z,100775.00
2022-09-03T12:52:52.330Z,100775.00
2022-09-03T12:55:47.479Z,100768.00
2022-09-03T12:58:28.025Z,100775.00
2022-09-03T13:01:04.126Z,100778.00
2022-09-03T13:03:50.802Z,100777.00
2022-09-03T13:06:25.591Z,100774.00
2022-09-03T13:09:00.777Z,100766.00
2022-09-03T13:11:29.722Z,100770.00
2022-09-03T13:14:10.505Z,100765.00
2022-09-03T13:16:46.788Z,100764.00
2022-09-03T13:19:45.964Z,100763.00
2022-09-03T13:22:27.407Z,100769.00
2022-09-03T13:25:19.617Z,100758.00
2022-09-03T13:27:55.585Z,100759.00
2022-09-03T13:30:33.117Z,100763.00
2022-09-03T13:33:29.521Z,100765.00
2022-09-03T13:36:08.976Z,100764.00
2022-09-03T13:38:39.065Z,100765.00
2022-09-03T13:41:36.512Z,100761.00
2022-09-03T13:44:08.489Z,100764.00
2022-09-03T13:47:08.410Z,100767.00
2022-09-03T13:50:29.483Z,100763.00
2022-09-03T13:53:37.419Z,100761.00
2022-09-03T13:56:58.444Z,100762.00
2022-09-03T13:59:52.147Z,100758.00
2022-09-03T14:02:38.796Z,100766.00
2022-09-03T14:05:16.803Z,100765.00
2022-09-03T14:07:59.002Z,100769.00
2022-09-03T14:11:13.542Z,100771.00
2022-09-03T14:14:15.445Z,100766.00
2022-09-03T14:17:19.332Z,100774.00
2022-09-03T14:20:00.581Z,100767.00
2022-09-03T14:22:45.685Z,100775.00
2022-09-03T14:25:26.099Z,100773.00
2022-09-03T14:27:56.478Z,100768.00
2022-09-03T14:30:46.650Z,100770.00
2022-09-03T14:33:31.752Z,100772.00
2022-09-03T14:36:36.032Z,100772.00
2022-09-03T14:39:30.744Z,100777.00
2022-09-03T14:42:07.317Z,100768.00
2022-09-03T14:44:59.260Z,100777.00
2022-09-03T14:48:28.194Z,100771.00
2022-09-03T14:51:42.134Z,100772.00
2022-09-03T14:54:52.836Z,100770.00
2022-09-03T14:57:32.499Z,100776.00
2022-09-03T15:00:19.696Z,100773.00
2022-09-03T15:03:44.636Z,100775.00
2022-09-03T15:06:40.645Z,100772.00
2022-09-03T15:09:52.681Z,100773.00
2022-09-03T15:12:37.578Z,100776.00
2022-09-03T15:15:38.463Z,100772.00
2022-09-03T15:18:37.478Z,100779.00
2022-09-03T15:21:53.017Z,100769.00
2022-09-03T15:25:08.224Z,100775.00
2022-09-03T15:28:11.901Z,100774.00
2022-09-03T15:31:08.996Z,100782.00
2022-09-03T15:33:55.409Z,100782.00
2022-09-03T15:36:36.456Z,100777.00
2022-09-03T15:39:18.264Z,100785.00
2022-09-03T15:41:57.641Z,100782.00
2022-09-03T15:44:28.465Z,100784.00
2022-09-03T15:47:13.923Z,100790.00
2022-09-03T15:49:54.110Z,100790.00
2022-09-03T15:52:30.492Z,100785.00
2022-09-03T15:55:19.492Z,100779.00
2022-09-03T15:58:05.255Z,100782.00
2022-09-03T16:00:50.843Z,100783.00
2022-09-03T16:03:33.571Z,100783.00
2022-09-03T16:06:55.111Z,100788.00
2022-09-03T16:10:28.441Z,100792.00
2022-09-03T16:13:58.640Z,100798.00
2022-09-03T16:16:44.514Z,100797.00
2022-09-03T16:19:38.063Z,100794.00
2022-09-03T16:22:17.936Z,100793.00
2022-09-03T16:25:01.168Z,100795.00
2022-09-03T16:28:01.619Z,100797.00
2022-09-03T16:31:23.498Z,100792.00
2022-09-03T16:34:22.805Z,100799.00
2022-09-03T16:37:05.066Z,100800.00
2022-09-03T16:40:28.803Z,100800.00
2022-09-03T16:43:29.899Z,100805.00
2022-09-03T16:46:11.522Z,100808.00
2022-09-03T16:49:04.336Z,100811.00
2022-09-03T16:52:18.586Z,100823.00
2022-09-03T16:55:21.661Z,100826.00
2022-09-03T16:58:10.006Z,100824.00
2022-09-03T17:01:11.280Z,100822.00
2022-09-03T17:04:33.541Z,100821.00
2022-09-03T17:07:51.373Z,100827.00
2022-09-03T17:11:13.764Z,100821.00
2022-09-03T17:14:25.802Z,100825.00
2022-09-03T17:17:43.947Z,100823.00
2022-09-03T17:20:27.301Z,100824.00
2022-09-03T17:23:15.390Z,100829.00
2022-09-03T17:26:32.049Z,100829.00
2022-09-03T17:29:25.420Z,100823.00
2022-09-03T17:32:32.367Z,100827.00
2022-09-03T17:35:50.037Z,100829.00
2022-09-03T17:38:44.747Z,100830.00
2022-09-03T17:41:49.841Z,100837.00
2022-09-03T17:45:13.568Z,100831.00
2022-09-03T17:48:06.858Z,100826.00
2022-09-03T17:50:59.487Z,100828.00
2022-09-03T17:53:48.552Z,100843.00
2022-09-03T17:56:40.066Z,100844.00
2022-09-03T17:59:47.985Z,100855.00
2022-09-03T18:02:15.505Z,100862.00
2022-09-03T18:05:09.599Z,100861.00
2022-09-03T18:08:09.211Z,100866.00
2022-09-03T18:11:19.956Z,100867.00
2022-09-03T18:14:38.424Z,100871.00
2022-09-03T18:17:29.133Z,100873.00
2022-09-03T18:20:29.757Z,100882.00
2022-09-03T18:23:50.035Z,100885.00
2022-09-03T18:26:48.015Z,100892.00
2022-09-03T18:29:56.056Z,100900.00
2022-09-03T18:32:41.828Z,100902.00
2022-09-03T18:35:29.606Z,100904.00
2022-09-03T18:38:15.896Z,100911.00
2022-09-03T18:41:52.221Z,100916.00
2022-09-03T18:45:22.079Z,100921.00
2022-09-03T18:48:35.204Z,100916.00
2022-09-03T18:51:54.350Z,100925.00
2022-09-03T18:55:14.801Z,100926.00
2022-09-03T18:58:49.124Z,100923.00
2022-09-03T19:01:48.021Z,100935.00
2022-09-03T19:05:19.585Z,100933.00
2022-09-03T19:08:27.656Z,100934.00
2022-09-03T19:11:37.960Z,100942.00
2022-09-03T19:14:40.591Z,100943.00
2022-09-03T19:17:45.167Z,100948.00
2022-09-03T19:20:49.993Z,100949.00
2022-09-03T19:23:35.855Z,100955.00
2022-09-03T19:26:55.365Z,100952.00
2022-09-03T19:30:13.017Z,100957.00
2022-09-03T19:33:13.878Z,100958.00
2022-09-03T19:36:24.605Z,100956.00
2022-09-03T19:40:05.756Z,100962.00
2022-09-03T19:43:27.834Z,100963.00
2022-09-03T19:46:49.903Z,100962.00
2022-09-03T19:49:55.186Z,100972.00
2022-09-03T19:53:10.924Z,100981.00
2022-09-03T19:56:42.047Z,100982.00
2022-09-03T19:59:39.453Z,100985.00
2022-09-03T20:02:25.371Z,100992.00
2022-09-03T20:05:19.897Z,100992.00
2022-09-03T20:08:13.211Z,100997.00
2022-09-03T20:10:48.262Z,100999.00
2022-09-03T20:13:20.734Z,100997.00
2022-09-03T20:16:18.245Z,100999.00
2022-09-03T20:19:06.930Z,101000.00
2022-09-03T20:22:08.482Z,100996.00
2022-09-03T20:25:07.420Z,101004.00
2022-09-03T20:27:58.627Z,100999.00
2022-09-03T20:30:43.410Z,101003.00
2022-09-03T20:33:22.901Z,101009.00
2022-09-03T20:36:24.809Z,101004.00
2022-09-03T20:39:28.904Z,101006.00
2022-09-03T20:42:14.189Z,101021.00
2022-09-03T20:45:11.913Z,101017.00
2022-09-03T20:48:04.203Z,101023.00
2022-09-03T20:51:08.307Z,101017.00
2022-09-03T20:54:09.617Z,101028.00
2022-09-03T20:56:36.725Z,101024.00
2022-09-03T20:59:22.302Z,101031.00
2022-09-03T21:02:01.469Z,101027.00
2022-09-03T21:04:56.197Z,101031.00
2022-09-03T21:07:46.404Z,101035.00
2022-09-03T21:10:48.343Z,101035.00
2022-09-03T21:13:50.556Z,101043.00
2022-09-03T21:17:18.564Z,101043.00
2022-09-03T21:20:22.284Z,101038.00
2022-09-03T21:23:21.753Z,101040.00
2022-09-03T21:26:14.831Z,101039.00
2022-09-03T21:29:00.040Z,101044.00
2022-09-03T21:31:52.674Z,101048.00
2022-09-03T21:34:41.059Z,101048.00
2022-09-03T21:37:13.580Z,101053.00
2022-09-03T21:39:57.409Z,101047.00
2022-09-03T21:42:34.489Z,101048.00
2022-09-03T21:45:33.549Z,101051.00
2022-09-03T21:48:35.770Z,101047.00
2022-09-03T21:51:27.713Z,101048.00
2022-09-03T21:54:01.254Z,101054.00
2022-09-03T21:57:25.293Z,101068.00
2022-09-03T22:00:07.137Z,101059.00
2022-09-03T22:02:35.367Z,101067.00
2022-09-03T22:05:03.788Z,101061.00
2022-09-03T22:08:02.941Z,101065.00
2022-09-03T22:10:35.926Z,101063.00
2022-09-03T22:13:16.948Z,101060.00
2022-09-03T22:15:50.396Z,101065.00
2022-09-03T22:18:29.730Z,101062.00
2022-09-03T22:21:18.449Z,101061.00
2022-09-03T22:24:07.553Z,101066.00
2022-09-03T22:27:36.510Z,101076.00
2022-09-03T22:30:13.928Z,101079.00
2022-09-03T22:33:05.898Z,101082.00
2022-09-03T22:35:57.801Z,101073.00
2022-09-03T22:38:54.000Z,101079.00
2022-09-03T22:42:04.632Z,101073.00
2022-09-03T22:44:55.058Z,101076.00
2022-09-03T22:48:21.565Z,101074.00
2022-09-03T22:50:57.213Z,101076.00
2022-09-03T22:53:45.148Z,101078.00
2022-09-03T22:56:22.059Z,101075.00
2022-09-03T22:59:11.830Z,101083.00
2022-09-03T23:02:13.411Z,101077.00
2022-09-03T23:05:13.267Z,101072.00
2022-09-03T23:08:10.225Z,101076.00
2022-09-03T23:11:25.480Z,101084.00
2022-09-03T23:14:19.997Z,101085.00
2022-09-03T23:16:56.211Z,101084.00
2022-09-03T23:19:41.114Z,101086.00
2022-09-03T23:22:18.059Z,101093.00
2022-09-03T23:25:01.334Z,101092.00
2022-09-03T23:27:54.904Z,101089.00
2022-09-03T23:30:22.300Z,101093.00
2022-09-03T23:32:57.260Z,101085.00
2022-09-03T23:35:35.194Z,101105.00
2022-09-03T23:38:54.462Z,101105.00
2022-09-03T23:41:56.168Z,101102.00
2022-09-03T23:44:58.334Z,101094.00
2022-09-03T23:47:45.927Z,101093.00
2022-09-03T23:50:52.891Z,101096.00
2022-09-03T23:53:42.390Z,101100.00
2022-09-03T23:56:27.608Z,101101.00
2022-09-03T23:59:10.557Z,101109.00
